X  Close Metar Aviation Weather Data     KBWI Baltimore/Washington International Thurgood Marshall Airport
Temperature
66°F Temperature
63°F Dewpoint
88% Humidity



Wind
0 MPH
0 KM/H
0 M/S
0 KTS



Calm
North
Current Conditions

Partly Cloudy Partly Cloudy
Pressure 1010.12 (hPa) - 29.83 (inHg)
Visibility 9.9 (mile) - 16 (km)
Airport
Airport-code KBWI

Location: Baltimore/Washington International Thurgood Marshall Airport
Distance: 6 (mi)

Metar:
KBWI 160554Z 00000KT 10SM FEW250 19/17 A2983 RMK AO2 SLP101 T01940167 10233 20194 58012

Time: 16-10-2021 01:54 EDT